createdAt,value
2018-08-07T00:01:26.596Z,67.20
2018-08-07T00:03:55.252Z,67.00
2018-08-07T00:06:23.754Z,67.40
2018-08-07T00:08:52.205Z,67.90
2018-08-07T00:11:20.688Z,69.20
2018-08-07T00:13:49.248Z,68.60
2018-08-07T00:16:17.792Z,68.00
2018-08-07T00:18:46.440Z,68.00
2018-08-07T00:21:14.892Z,68.30
2018-08-07T00:23:43.513Z,68.30
2018-08-07T00:26:12.046Z,67.80
2018-08-07T00:28:40.518Z,68.20
2018-08-07T00:31:09.050Z,68.30
2018-08-07T00:33:37.474Z,68.90
2018-08-07T00:36:05.960Z,68.80
2018-08-07T00:38:34.482Z,70.50
2018-08-07T00:41:03.013Z,70.10
2018-08-07T00:43:31.541Z,70.60
2018-08-07T00:46:00.140Z,71.00
2018-08-07T00:48:28.660Z,71.30
2018-08-07T00:50:57.151Z,71.50
2018-08-07T00:53:25.656Z,71.20
2018-08-07T00:55:54.161Z,71.10
2018-08-07T00:58:22.647Z,71.00
2018-08-07T01:00:51.181Z,69.80
2018-08-07T01:03:19.636Z,71.10
2018-08-07T01:05:48.169Z,71.30
2018-08-07T01:08:17.304Z,70.80
2018-08-07T01:10:45.776Z,70.10
2018-08-07T01:13:14.231Z,68.70
2018-08-07T01:15:42.677Z,69.80
2018-08-07T01:18:11.165Z,69.90
2018-08-07T01:20:39.689Z,70.60
2018-08-07T01:23:08.135Z,71.30
2018-08-07T01:25:36.680Z,72.00
2018-08-07T01:28:05.464Z,71.90
2018-08-07T01:30:34.086Z,72.30
2018-08-07T01:33:02.574Z,73.10
2018-08-07T01:35:31.050Z,73.80
2018-08-07T01:37:59.543Z,74.20
2018-08-07T01:40:28.143Z,74.50
2018-08-07T01:42:56.652Z,72.70
2018-08-07T01:45:25.149Z,71.60
2018-08-07T01:47:53.678Z,72.80
2018-08-07T01:50:22.119Z,72.40
2018-08-07T01:52:50.588Z,73.20
2018-08-07T01:55:22.501Z,72.90
2018-08-07T01:57:50.974Z,72.10
2018-08-07T02:00:20.025Z,72.20
2018-08-07T02:02:48.913Z,72.90
2018-08-07T02:05:17.599Z,72.10
2018-08-07T02:07:46.084Z,71.80
2018-08-07T02:10:15.984Z,72.70
2018-08-07T02:12:45.357Z,73.50
2018-08-07T02:15:14.702Z,73.70
2018-08-07T02:17:43.248Z,72.40
2018-08-07T02:20:14.000Z,72.20
2018-08-07T02:22:43.296Z,73.30
2018-08-07T02:25:14.295Z,74.20
2018-08-07T02:27:43.451Z,73.90
2018-08-07T02:30:13.150Z,74.20
2018-08-07T02:32:41.682Z,75.00
2018-08-07T02:35:11.361Z,74.60
2018-08-07T02:37:40.437Z,74.20
2018-08-07T02:40:10.145Z,73.50
2018-08-07T02:42:38.721Z,74.40
2018-08-07T02:45:13.184Z,75.50
2018-08-07T02:47:42.688Z,75.50
2018-08-07T02:50:13.329Z,77.00
2018-08-07T02:52:41.877Z,76.90
2018-08-07T02:55:11.607Z,76.30
2018-08-07T02:57:41.127Z,76.60
2018-08-07T03:00:20.841Z,76.10
2018-08-07T03:02:49.879Z,76.00
2018-08-07T03:05:19.237Z,76.20
2018-08-07T03:07:47.780Z,77.40
2018-08-07T03:10:16.904Z,76.70
2018-08-07T03:12:45.403Z,77.40
2018-08-07T03:15:17.428Z,78.40
2018-08-07T03:17:46.972Z,77.70
2018-08-07T03:20:16.184Z,77.40
2018-08-07T03:22:44.725Z,77.00
2018-08-07T03:25:13.892Z,76.90
2018-08-07T03:30:14.001Z,79.00
2018-08-07T03:32:42.765Z,78.30
2018-08-07T03:35:11.405Z,78.10
2018-08-07T03:37:40.387Z,78.10
2018-08-07T03:40:14.936Z,78.30
2018-08-07T03:42:44.009Z,79.10
2018-08-07T03:45:19.028Z,79.50
2018-08-07T03:47:48.253Z,79.90
2018-08-07T03:50:16.757Z,78.80
2018-08-07T03:52:45.220Z,79.50
2018-08-07T03:57:44.094Z,79.30
2018-08-07T04:00:15.228Z,79.30
2018-08-07T04:02:43.778Z,78.90
2018-08-07T04:05:12.636Z,78.80
2018-08-07T04:07:41.139Z,78.60
2018-08-07T04:10:12.184Z,78.50
2018-08-07T04:12:41.051Z,78.40
2018-08-07T04:15:12.404Z,79.30
2018-08-07T04:17:41.180Z,79.10
2018-08-07T04:20:11.797Z,79.80
2018-08-07T04:22:40.340Z,80.00
2018-08-07T04:25:09.284Z,79.60
2018-08-07T04:27:38.081Z,79.30
2018-08-07T04:30:10.828Z,78.70
2018-08-07T04:32:39.912Z,78.90
2018-08-07T04:35:08.388Z,79.40
2018-08-07T04:37:37.214Z,77.90
2018-08-07T04:40:06.897Z,78.60
2018-08-07T04:42:35.985Z,79.50
2018-08-07T04:45:06.567Z,80.20
2018-08-07T04:47:35.036Z,80.70
2018-08-07T04:50:03.604Z,79.80
2018-08-07T04:52:32.068Z,79.00
2018-08-07T04:55:00.664Z,78.70
2018-08-07T04:57:29.123Z,78.90
2018-08-07T04:59:57.814Z,78.50
2018-08-07T05:02:27.133Z,77.80
2018-08-07T05:04:55.603Z,77.70
2018-08-07T05:07:24.075Z,76.90
2018-08-07T05:09:52.681Z,75.90
2018-08-07T05:12:22.132Z,75.60
2018-08-07T05:14:50.608Z,75.20
2018-08-07T05:17:19.112Z,75.10
2018-08-07T05:19:47.554Z,74.30
2018-08-07T05:22:16.032Z,73.40
2018-08-07T05:24:44.474Z,73.40
2018-08-07T05:27:12.980Z,73.50
2018-08-07T05:29:41.446Z,72.80
2018-08-07T05:32:09.928Z,71.40
2018-08-07T05:34:38.389Z,71.00
2018-08-07T05:37:06.860Z,70.80
2018-08-07T05:39:35.481Z,70.70
2018-08-07T05:42:04.032Z,70.60
2018-08-07T05:44:32.523Z,67.30
2018-08-07T05:47:01.116Z,67.50
2018-08-07T05:49:30.101Z,68.50
2018-08-07T05:51:58.603Z,67.40
2018-08-07T05:54:27.065Z,67.20
2018-08-07T05:56:55.552Z,66.90
2018-08-07T05:59:24.035Z,66.50
2018-08-07T06:01:52.520Z,65.60
2018-08-07T06:04:20.996Z,65.20
2018-08-07T06:06:49.458Z,64.70
2018-08-07T06:09:17.959Z,63.00
2018-08-07T06:11:46.422Z,62.30
2018-08-07T06:14:14.984Z,62.90
2018-08-07T06:16:43.608Z,62.70
2018-08-07T06:19:12.146Z,65.10
2018-08-07T06:21:40.654Z,65.70
2018-08-07T06:24:09.725Z,64.60
2018-08-07T06:26:38.195Z,65.30
2018-08-07T06:29:07.511Z,65.00
2018-08-07T06:31:36.057Z,64.40
2018-08-07T06:34:04.621Z,64.00
2018-08-07T06:36:33.142Z,64.20
2018-08-07T06:39:01.708Z,63.90
2018-08-07T06:41:30.292Z,62.90
2018-08-07T06:43:58.767Z,62.40
2018-08-07T06:46:27.280Z,61.90
2018-08-07T06:48:56.060Z,61.10
2018-08-07T06:51:24.580Z,59.50
2018-08-07T06:53:53.016Z,56.50
2018-08-07T06:56:21.500Z,58.20
2018-08-07T06:58:49.955Z,55.50
2018-08-07T07:01:18.442Z,55.70
2018-08-07T07:03:47.176Z,56.10
2018-08-07T07:06:15.744Z,57.40
2018-08-07T07:08:44.222Z,55.70
2018-08-07T07:11:12.813Z,55.50
2018-08-07T07:13:41.457Z,52.30
2018-08-07T07:16:09.955Z,53.70
2018-08-07T07:18:38.617Z,52.40
2018-08-07T07:21:07.484Z,52.90
2018-08-07T07:23:36.167Z,54.70
2018-08-07T07:26:04.744Z,53.40
2018-08-07T07:28:33.305Z,52.70
2018-08-07T07:31:01.773Z,52.10
2018-08-07T07:33:30.265Z,52.00
2018-08-07T07:35:58.736Z,54.70
2018-08-07T07:38:27.268Z,53.60
2018-08-07T07:40:55.776Z,52.00
2018-08-07T07:43:24.303Z,52.20
2018-08-07T07:45:52.801Z,51.90
2018-08-07T07:48:21.303Z,51.70
2018-08-07T07:50:49.760Z,52.60
2018-08-07T07:53:18.316Z,50.40
2018-08-07T07:55:46.860Z,50.40
2018-08-07T07:58:15.456Z,51.20
2018-08-07T08:00:43.997Z,51.00
2018-08-07T08:03:12.562Z,51.50
2018-08-07T08:05:41.336Z,52.00
2018-08-07T08:08:09.774Z,52.40
2018-08-07T08:10:38.414Z,53.50
2018-08-07T08:13:06.934Z,52.40
2018-08-07T08:15:35.464Z,51.20
2018-08-07T08:18:04.504Z,51.70
2018-08-07T08:20:33.114Z,52.00
2018-08-07T08:23:01.577Z,51.70
2018-08-07T08:25:30.053Z,51.80
2018-08-07T08:27:58.627Z,51.80
2018-08-07T08:30:27.200Z,51.30
2018-08-07T08:32:55.663Z,52.20
2018-08-07T08:35:24.390Z,51.60
2018-08-07T08:37:52.885Z,52.00
2018-08-07T08:42:50.852Z,54.40
2018-08-07T08:45:21.422Z,51.90
2018-08-07T08:47:51.671Z,51.20
2018-08-07T08:50:21.309Z,52.00
2018-08-07T08:52:50.061Z,51.60
2018-08-07T08:55:18.678Z,51.80
2018-08-07T08:57:47.204Z,52.50
2018-08-07T09:00:25.129Z,52.30
2018-08-07T09:02:54.502Z,52.60
2018-08-07T09:05:22.981Z,52.20
2018-08-07T09:07:51.648Z,51.40
2018-08-07T09:10:23.503Z,51.00
2018-08-07T09:12:52.681Z,51.40
2018-08-07T09:15:21.334Z,50.40
2018-08-07T09:17:49.866Z,51.70
2018-08-07T09:20:23.164Z,52.60
2018-08-07T09:22:51.704Z,52.80
2018-08-07T09:25:21.235Z,51.30
2018-08-07T09:27:49.792Z,51.00
2018-08-07T09:30:21.369Z,50.20
2018-08-07T09:32:50.814Z,50.60
2018-08-07T09:35:20.555Z,49.90
2018-08-07T09:37:49.324Z,49.50
2018-08-07T09:40:19.330Z,49.40
2018-08-07T09:42:49.344Z,49.30
2018-08-07T09:45:23.680Z,48.70
2018-08-07T09:47:52.324Z,48.10
2018-08-07T09:50:21.454Z,47.90
2018-08-07T09:52:50.281Z,47.80
2018-08-07T09:55:18.997Z,47.90
2018-08-07T09:57:47.495Z,47.90
2018-08-07T10:00:23.460Z,47.80
2018-08-07T10:02:58.405Z,48.10
2018-08-07T10:05:28.249Z,47.80
2018-08-07T10:07:56.705Z,49.10
2018-08-07T10:10:25.652Z,49.00
2018-08-07T10:12:54.294Z,49.00
2018-08-07T10:15:22.787Z,48.90
2018-08-07T10:17:51.316Z,49.00
2018-08-07T10:20:19.801Z,49.40
2018-08-07T10:22:48.333Z,48.80
2018-08-07T10:25:18.156Z,47.40
2018-08-07T10:27:47.819Z,47.80
2018-08-07T10:30:18.036Z,48.50
2018-08-07T10:32:47.090Z,49.00
2018-08-07T10:35:15.996Z,49.50
2018-08-07T10:37:45.129Z,49.00
2018-08-07T10:40:17.664Z,48.60
2018-08-07T10:42:46.340Z,48.10
2018-08-07T10:45:16.691Z,49.10
2018-08-07T10:47:45.425Z,48.50
2018-08-07T10:50:19.216Z,49.60
2018-08-07T10:52:48.573Z,48.90
2018-08-07T10:55:17.420Z,49.50
2018-08-07T10:57:47.217Z,49.10
2018-08-07T11:00:19.461Z,48.20
2018-08-07T11:02:49.148Z,48.30
2018-08-07T11:05:18.199Z,47.70
2018-08-07T11:07:46.692Z,46.90
2018-08-07T11:10:15.873Z,46.90
2018-08-07T11:12:45.269Z,47.70
2018-08-07T11:15:17.372Z,47.60
2018-08-07T11:17:46.804Z,47.30
2018-08-07T11:20:15.513Z,47.40
2018-08-07T11:22:46.873Z,48.10
2018-08-07T11:25:16.515Z,47.80
2018-08-07T11:27:45.034Z,48.10
2018-08-07T11:30:16.528Z,47.50
2018-08-07T11:32:45.675Z,47.70
2018-08-07T11:35:14.735Z,47.40
2018-08-07T11:37:44.635Z,47.30
2018-08-07T11:40:15.991Z,47.90
2018-08-07T11:42:45.847Z,47.70
2018-08-07T11:45:15.632Z,47.70
2018-08-07T11:47:44.318Z,47.70
2018-08-07T11:50:15.033Z,46.80
2018-08-07T11:52:43.594Z,46.40
2018-08-07T11:55:13.976Z,46.80
2018-08-07T11:57:42.752Z,46.70
2018-08-07T12:00:20.065Z,45.90
2018-08-07T12:02:49.040Z,46.40
2018-08-07T12:05:17.970Z,46.70
2018-08-07T12:07:46.444Z,46.50
2018-08-07T12:10:16.861Z,46.30
2018-08-07T12:12:45.805Z,46.30
2018-08-07T12:15:17.081Z,46.20
2018-08-07T12:17:46.039Z,46.20
2018-08-07T12:22:43.623Z,45.40
2018-08-07T12:27:41.649Z,45.60
2018-08-07T12:30:19.609Z,45.70
2018-08-07T12:32:48.183Z,45.90
2018-08-07T12:35:16.723Z,44.90
2018-08-07T12:37:45.262Z,46.20
2018-08-07T12:40:20.165Z,45.90
2018-08-07T12:42:49.482Z,45.90
2018-08-07T12:45:18.008Z,45.40
2018-08-07T12:47:47.168Z,45.70
2018-08-07T12:50:16.568Z,45.90
2018-08-07T12:52:45.134Z,44.90
2018-08-07T12:55:19.202Z,45.40
2018-08-07T12:57:48.157Z,45.50
2018-08-07T13:00:23.172Z,45.40
2018-08-07T13:02:52.040Z,46.10
2018-08-07T13:05:20.646Z,45.40
2018-08-07T13:07:49.186Z,46.00
2018-08-07T13:10:19.274Z,45.20
2018-08-07T13:12:48.461Z,44.90
2018-08-07T13:15:18.693Z,45.50
2018-08-07T13:17:48.918Z,45.40
2018-08-07T13:20:17.640Z,45.90
2018-08-07T13:22:47.161Z,45.40
2018-08-07T13:25:17.998Z,45.70
2018-08-07T13:27:46.602Z,44.30
2018-08-07T13:30:18.688Z,44.50
2018-08-07T13:32:47.453Z,45.50
2018-08-07T13:35:16.700Z,45.80
2018-08-07T13:40:16.648Z,45.90
2018-08-07T13:45:18.192Z,46.00
2018-08-07T13:47:46.717Z,46.40
2018-08-07T13:50:17.041Z,45.20
2018-08-07T13:52:46.359Z,46.10
2018-08-07T13:55:16.661Z,44.40
2018-08-07T14:00:23.592Z,44.00
2018-08-07T14:02:52.902Z,44.30
2018-08-07T14:05:22.317Z,44.40
2018-08-07T14:07:52.011Z,44.40
2018-08-07T14:10:21.827Z,44.60
2018-08-07T14:12:51.596Z,44.90
2018-08-07T14:15:21.034Z,45.20
2018-08-07T14:17:49.559Z,46.20
2018-08-07T14:22:47.081Z,45.80
2018-08-07T14:25:18.320Z,46.00
2018-08-07T14:27:47.193Z,46.20
2018-08-07T14:30:21.028Z,46.30
2018-08-07T14:32:49.889Z,45.80
2018-08-07T14:35:18.524Z,46.30
2018-08-07T14:37:47.948Z,46.80
2018-08-07T14:40:18.564Z,47.60
2018-08-07T14:42:48.200Z,47.40
2018-08-07T14:45:19.248Z,48.70
2018-08-07T14:47:48.826Z,48.70
2018-08-07T14:50:19.043Z,49.60
2018-08-07T14:52:47.558Z,49.20
2018-08-07T14:57:49.655Z,51.30
2018-08-07T15:00:20.712Z,50.50
2018-08-07T15:02:50.368Z,50.20
2018-08-07T15:05:19.395Z,52.00
2018-08-07T15:07:48.304Z,49.40
2018-08-07T15:12:46.876Z,49.60
2018-08-07T15:15:17.921Z,48.60
2018-08-07T15:20:16.645Z,48.70
2018-08-07T15:25:15.812Z,47.80
2018-08-07T15:27:44.337Z,48.60
2018-08-07T15:30:15.032Z,49.40
2018-08-07T15:32:44.291Z,48.40
2018-08-07T15:35:13.605Z,48.40
2018-08-07T15:37:42.165Z,48.70
2018-08-07T15:40:11.201Z,47.80
2018-08-07T15:42:40.545Z,47.90
2018-08-07T15:45:09.695Z,48.10
2018-08-07T15:47:38.313Z,48.00
2018-08-07T15:50:12.741Z,48.00
2018-08-07T15:52:42.838Z,47.90
2018-08-07T15:55:13.133Z,48.00
2018-08-07T15:57:41.652Z,48.70
2018-08-07T16:00:15.392Z,49.00
2018-08-07T16:02:44.304Z,49.40
2018-08-07T16:05:13.652Z,49.70
2018-08-07T16:07:42.141Z,50.40
2018-08-07T16:10:14.094Z,50.30
2018-08-07T16:12:43.275Z,50.40
2018-08-07T16:15:11.864Z,51.30
2018-08-07T16:17:40.440Z,51.50
2018-08-07T16:20:09.929Z,51.00
2018-08-07T16:22:40.064Z,51.50
2018-08-07T16:25:10.312Z,52.10
2018-08-07T16:27:39.758Z,52.30
2018-08-07T16:30:11.192Z,51.30
2018-08-07T16:32:39.711Z,51.60
2018-08-07T16:35:08.233Z,52.10
2018-08-07T16:37:36.744Z,51.50
2018-08-07T16:40:07.813Z,51.60
2018-08-07T16:42:36.333Z,51.90
2018-08-07T16:45:07.179Z,51.70
2018-08-07T16:47:35.695Z,51.90
2018-08-07T16:50:05.415Z,52.00
2018-08-07T16:52:33.884Z,52.10
2018-08-07T16:55:02.872Z,52.70
2018-08-07T16:57:31.532Z,52.80
2018-08-07T17:00:00.030Z,52.90
2018-08-07T17:02:28.605Z,53.20
2018-08-07T17:04:57.045Z,52.60
2018-08-07T17:07:25.525Z,53.20
2018-08-07T17:09:54.128Z,51.90
2018-08-07T17:12:22.620Z,52.50
2018-08-07T17:14:51.113Z,52.80
2018-08-07T17:17:19.674Z,52.70
2018-08-07T17:19:48.212Z,53.60
2018-08-07T17:22:17.528Z,53.70
2018-08-07T17:24:45.907Z,53.70
2018-08-07T17:27:15.121Z,53.30
2018-08-07T17:29:43.815Z,53.30
2018-08-07T17:32:12.504Z,54.20
2018-08-07T17:34:41.020Z,52.90
2018-08-07T17:37:09.549Z,53.10
2018-08-07T17:39:38.076Z,55.60
2018-08-07T17:42:06.685Z,54.60
2018-08-07T17:44:35.169Z,53.90
2018-08-07T17:47:03.877Z,53.00
2018-08-07T17:49:32.506Z,53.20
2018-08-07T17:52:00.957Z,54.20
2018-08-07T17:54:29.516Z,53.20
2018-08-07T17:56:58.592Z,52.80
2018-08-07T17:59:27.945Z,53.70
2018-08-07T18:01:56.494Z,52.10
2018-08-07T18:04:25.014Z,52.60
2018-08-07T18:06:53.594Z,54.30
2018-08-07T18:09:22.148Z,53.50
2018-08-07T18:11:50.626Z,53.40
2018-08-07T18:14:19.157Z,53.20
2018-08-07T18:16:48.060Z,52.80
2018-08-07T18:19:16.593Z,52.90
2018-08-07T18:24:13.389Z,53.80
2018-08-07T18:26:41.988Z,53.80
2018-08-07T18:29:10.458Z,53.90
2018-08-07T18:31:38.920Z,54.50
2018-08-07T18:34:07.489Z,55.90
2018-08-07T18:36:36.101Z,55.00
2018-08-07T18:39:07.332Z,55.60
2018-08-07T18:41:35.997Z,56.90
2018-08-07T18:44:04.671Z,57.90
2018-08-07T18:46:33.291Z,58.40
2018-08-07T18:49:01.921Z,58.90
2018-08-07T18:51:30.738Z,59.90
2018-08-07T18:54:00.042Z,60.20
2018-08-07T18:56:28.588Z,60.60
2018-08-07T18:58:57.169Z,60.80
2018-08-07T19:01:25.771Z,61.20
2018-08-07T19:03:54.382Z,61.90
2018-08-07T19:06:22.905Z,62.20
2018-08-07T19:08:51.429Z,62.00
2018-08-07T19:11:19.959Z,61.80
2018-08-07T19:13:48.485Z,62.00
2018-08-07T19:16:16.953Z,61.60
2018-08-07T19:18:45.496Z,61.60
2018-08-07T19:21:13.989Z,61.70
2018-08-07T19:23:42.569Z,62.00
2018-08-07T19:26:11.264Z,62.40
2018-08-07T19:28:39.800Z,62.30
2018-08-07T19:31:08.488Z,62.00
2018-08-07T19:33:37.073Z,62.10
2018-08-07T19:36:05.677Z,62.40
2018-08-07T19:38:34.165Z,62.80
2018-08-07T19:41:02.680Z,63.40
2018-08-07T19:43:31.252Z,63.40
2018-08-07T19:45:59.744Z,63.70
2018-08-07T19:48:28.304Z,63.70
2018-08-07T19:50:56.857Z,64.00
2018-08-07T19:53:25.354Z,64.80
2018-08-07T19:55:53.925Z,65.60
2018-08-07T19:58:22.384Z,65.40
2018-08-07T20:00:51.459Z,65.10
2018-08-07T20:03:19.971Z,64.90
2018-08-07T20:05:48.456Z,65.90
2018-08-07T20:08:17.013Z,67.10
2018-08-07T20:10:45.615Z,67.10
2018-08-07T20:13:14.055Z,67.20
2018-08-07T20:15:42.611Z,68.10
2018-08-07T20:18:11.064Z,67.80
2018-08-07T20:20:39.597Z,66.60
2018-08-07T20:23:08.153Z,67.80
2018-08-07T20:25:37.273Z,67.20
2018-08-07T20:28:05.869Z,68.30
2018-08-07T20:30:34.371Z,68.40
2018-08-07T20:33:02.919Z,67.30
2018-08-07T20:35:31.508Z,67.00
2018-08-07T20:38:00.061Z,67.20
2018-08-07T20:40:28.983Z,68.00
2018-08-07T20:42:58.684Z,68.70
2018-08-07T20:45:27.508Z,69.10
2018-08-07T20:47:55.984Z,69.30
2018-08-07T20:50:26.050Z,69.80
2018-08-07T20:52:55.396Z,70.70
2018-08-07T20:55:23.957Z,70.70
2018-08-07T20:57:52.450Z,70.10
2018-08-07T21:00:23.952Z,71.10
2018-08-07T21:02:52.632Z,70.50
2018-08-07T21:05:21.854Z,71.00
2018-08-07T21:07:50.392Z,71.60
2018-08-07T21:10:22.154Z,71.40
2018-08-07T21:12:50.652Z,72.40
2018-08-07T21:15:19.328Z,72.70
2018-08-07T21:17:47.844Z,72.90
2018-08-07T21:20:18.513Z,73.10
2018-08-07T21:22:47.395Z,73.00
2018-08-07T21:25:17.751Z,73.60
2018-08-07T21:27:47.193Z,74.30
2018-08-07T21:30:17.530Z,74.00
2018-08-07T21:32:46.044Z,73.50
2018-08-07T21:35:14.564Z,72.00
2018-08-07T21:37:43.144Z,71.20
2018-08-07T21:40:15.311Z,72.20
2018-08-07T21:42:44.395Z,73.10
2018-08-07T21:45:13.309Z,72.40
2018-08-07T21:47:41.936Z,71.90
2018-08-07T21:50:12.323Z,72.20
2018-08-07T21:52:40.988Z,73.00
2018-08-07T21:55:11.348Z,72.40
2018-08-07T21:57:40.345Z,73.80
2018-08-07T22:00:15.144Z,74.20
2018-08-07T22:02:43.849Z,74.70
2018-08-07T22:05:12.636Z,74.20
2018-08-07T22:07:41.172Z,74.30
2018-08-07T22:10:17.478Z,74.50
2018-08-07T22:12:46.236Z,74.70
2018-08-07T22:15:15.692Z,75.20
2018-08-07T22:17:44.536Z,76.30
2018-08-07T22:20:13.825Z,76.40
2018-08-07T22:22:42.536Z,76.10
2018-08-07T22:25:11.306Z,76.80
2018-08-07T22:27:39.917Z,77.50
2018-08-07T22:30:11.130Z,77.40
2018-08-07T22:32:39.660Z,77.20
2018-08-07T22:35:08.956Z,76.20
2018-08-07T22:37:37.832Z,76.10
2018-08-07T22:40:06.663Z,76.30
2018-08-07T22:42:36.100Z,76.90
2018-08-07T22:45:06.121Z,77.30
2018-08-07T22:47:34.643Z,77.90
2018-08-07T22:50:03.393Z,77.90
2018-08-07T22:52:31.909Z,77.10
2018-08-07T22:55:00.413Z,76.60
2018-08-07T22:57:28.981Z,77.10
2018-08-07T22:59:57.470Z,77.40
2018-08-07T23:02:26.016Z,77.70
2018-08-07T23:04:54.483Z,78.70
2018-08-07T23:07:23.090Z,78.50
2018-08-07T23:09:52.363Z,79.00
2018-08-07T23:12:21.003Z,79.30
2018-08-07T23:14:49.474Z,79.10
2018-08-07T23:17:18.005Z,78.70
2018-08-07T23:19:46.413Z,78.70
2018-08-07T23:22:14.900Z,78.90
2018-08-07T23:24:43.365Z,79.30
2018-08-07T23:27:11.841Z,79.90
2018-08-07T23:29:40.268Z,79.90
2018-08-07T23:32:08.769Z,79.90
2018-08-07T23:34:37.191Z,80.20
2018-08-07T23:37:06.043Z,80.10
2018-08-07T23:39:34.516Z,79.80
2018-08-07T23:42:03.028Z,79.40
2018-08-07T23:44:31.485Z,79.70
2018-08-07T23:47:00.057Z,79.70
2018-08-07T23:49:28.516Z,79.80
2018-08-07T23:51:56.983Z,80.50
2018-08-07T23:54:25.585Z,81.00
2018-08-07T23:56:54.152Z,80.60
2018-08-07T23:59:22.836Z,80.70
